Time;durP1;ratioP1;P1;durP2;ratioP2;P2;SDS_P1;SDS_P2;PMS_P1;PMS_P2;Temp;Humidity;BMP_temperature;BMP_pressure;BME280_temperature;BME280_humidity;BME280_pressure;Samples;Min_cycle;Max_cycle;Signal;HPM_P1;HPM_P2
2021/06/08 00:00:16;;;;;;;5.08;3.52;;;;;;;15.06;79.03;99770.63;1762809;79;21491;-76
2021/06/08 00:02:43;;;;;;;4.58;3.20;;;;;;;15.09;78.98;99760.97;1722029;81;21248;-76
2021/06/08 00:05:10;;;;;;;3.65;3.33;;;;;;;15.13;78.91;99764.45;1766718;80;21125;-76
2021/06/08 00:07:36;;;;;;;3.35;3.00;;;;;;;15.17;78.80;99763.64;1754434;80;21830;-76
2021/06/08 00:10:05;;;;;;;5.03;3.10;;;;;;;15.23;78.67;99767.45;1755098;79;21126;-76
2021/06/08 00:12:32;;;;;;;4.67;2.95;;;;;;;15.25;78.57;99759.66;1764309;80;21117;-76
2021/06/08 00:14:58;;;;;;;3.95;3.50;;;;;;;15.28;78.42;99767.30;1733143;80;21230;-76
2021/06/08 00:17:25;;;;;;;4.30;3.60;;;;;;;15.31;78.29;99766.12;1740155;80;21085;-76
2021/06/08 00:19:51;;;;;;;4.12;3.62;;;;;;;15.31;78.18;99764.28;1739953;79;22495;-76
2021/06/08 00:22:17;;;;;;;4.67;3.67;;;;;;;15.31;78.12;99764.28;1760396;79;20976;-77
2021/06/08 00:24:44;;;;;;;7.37;3.72;;;;;;;15.30;78.05;99757.81;1737210;80;21011;-76
2021/06/08 00:27:10;;;;;;;5.70;3.52;;;;;;;15.29;78.08;99759.64;1768991;79;20981;-76
2021/06/08 00:29:37;;;;;;;4.28;3.70;;;;;;;15.28;78.12;99759.31;1730887;81;21063;-76
2021/06/08 00:32:05;;;;;;;5.12;3.55;;;;;;;15.25;78.09;99758.33;1713415;80;22509;-76
2021/06/08 00:34:31;;;;;;;4.47;3.60;;;;;;;15.23;78.07;99759.47;1708295;81;21064;-75
2021/06/08 00:36:57;;;;;;;4.97;3.60;;;;;;;15.19;78.06;99749.67;1744406;79;20957;-76
2021/06/08 00:39:24;;;;;;;4.22;3.70;;;;;;;15.15;78.13;99755.83;1768204;80;21439;-78
2021/06/08 00:41:50;;;;;;;5.45;3.60;;;;;;;15.12;78.12;99759.30;1739441;80;21408;-76
2021/06/08 00:44:17;;;;;;;6.60;3.60;;;;;;;15.11;78.06;99759.80;1733542;81;21807;-77
2021/06/08 00:46:45;;;;;;;5.30;3.70;;;;;;;15.10;78.03;99759.47;1734749;82;21099;-76
2021/06/08 00:49:13;;;;;;;4.33;3.90;;;;;;;15.06;78.09;99758.66;1731149;81;21043;-76
2021/06/08 00:51:40;;;;;;;5.50;3.80;;;;;;;15.05;78.13;99761.78;1732346;81;21715;-76
2021/06/08 00:54:09;;;;;;;6.83;3.98;;;;;;;15.03;78.12;99761.62;1762140;79;21059;-76
2021/06/08 00:56:36;;;;;;;4.95;3.62;;;;;;;15.01;78.16;99754.31;1758926;79;22456;-75
2021/06/08 00:59:03;;;;;;;6.92;3.70;;;;;;;15.00;78.18;99757.47;1762291;79;21724;-76
2021/06/08 01:01:30;;;;;;;6.12;3.90;;;;;;;15.00;78.12;99758.80;1736788;82;21118;-76
2021/06/08 01:03:57;;;;;;;6.20;3.72;;;;;;;15.01;78.09;99756.97;1726564;82;21542;-76
2021/06/08 01:06:23;;;;;;;7.35;3.65;;;;;;;15.02;78.08;99762.13;1694792;82;21150;-76
2021/06/08 01:08:50;;;;;;;7.28;3.95;;;;;;;15.03;78.08;99754.97;1690741;82;21804;-76
2021/06/08 01:11:16;;;;;;;5.90;3.70;;;;;;;15.01;78.13;99760.47;1737669;80;21174;-76
2021/06/08 01:13:43;;;;;;;4.25;3.65;;;;;;;15.03;78.15;99770.93;1715711;82;21032;-76
2021/06/08 01:16:10;;;;;;;4.42;3.55;;;;;;;15.02;78.18;99763.95;1734174;81;21426;-76
2021/06/08 01:18:36;;;;;;;5.80;3.72;;;;;;;15.03;78.20;99769.60;1693529;82;21447;-76
2021/06/08 01:21:07;;;;;;;4.47;3.67;;;;;;;15.03;78.18;99767.77;1667761;82;21781;-76
2021/06/08 01:23:35;;;;;;;4.30;3.90;;;;;;;15.03;78.19;99766.94;1720319;81;21020;-76
2021/06/08 01:26:01;;;;;;;4.00;3.60;;;;;;;15.01;78.20;99771.59;1707439;82;20984;-76
2021/06/08 01:28:28;;;;;;;6.08;3.65;;;;;;;14.97;78.28;99773.77;1715160;81;20980;-76
2021/06/08 01:30:54;;;;;;;5.17;3.80;;;;;;;14.98;78.45;99775.43;1726848;80;20972;-76
2021/06/08 01:33:22;;;;;;;4.25;3.70;;;;;;;15.00;78.55;99774.77;1759320;80;22514;-76
2021/06/08 01:35:49;;;;;;;7.00;3.98;;;;;;;15.03;78.70;99774.42;1761735;79;21466;-75
2021/06/08 01:38:16;;;;;;;5.33;3.85;;;;;;;15.05;78.78;99773.75;1736132;80;21390;-76
2021/06/08 01:40:43;;;;;;;11.30;3.90;;;;;;;15.08;78.85;99780.59;1763383;80;21505;-76
2021/06/08 01:43:10;;;;;;;5.20;3.70;;;;;;;15.09;78.96;99779.59;1738918;80;20971;-76
2021/06/08 01:45:36;;;;;;;4.40;4.00;;;;;;;15.10;79.00;99776.77;1764517;80;21808;-76
2021/06/08 01:48:04;;;;;;;4.33;3.92;;;;;;;15.11;79.12;99785.07;1751602;79;21111;-77
2021/06/08 01:50:30;;;;;;;4.90;3.77;;;;;;;15.13;79.22;99784.40;1721061;80;21056;-77
2021/06/08 01:53:14;;;;;;;6.10;4.25;;;;;;;15.13;79.23;99783.07;1764510;80;21012;-77
2021/06/08 01:55:44;;;;;;;5.10;4.10;;;;;;;15.14;79.37;99786.56;1761743;80;21086;-77
2021/06/08 01:58:34;;;;;;;6.87;4.28;;;;;;;15.16;79.42;99785.92;1731193;81;21815;-77
2021/06/08 02:01:09;;;;;;;6.30;4.28;;;;;;;15.15;79.56;99788.22;1754707;80;20995;-78
2021/06/08 02:03:44;;;;;;;5.62;4.00;;;;;;;15.14;79.62;99794.04;1756078;79;21060;-77
2021/06/08 02:06:36;;;;;;;4.90;4.40;;;;;;;15.16;79.67;99785.92;1737830;80;21032;-77
2021/06/08 02:09:42;;;;;;;5.70;4.30;;;;;;;15.15;79.69;99785.56;1745494;81;21000;-77
2021/06/08 02:12:15;;;;;;;6.10;4.28;;;;;;;15.16;79.73;99788.58;1741727;80;21896;-78
2021/06/08 02:14:56;;;;;;;6.70;4.03;;;;;;;15.16;79.76;99788.58;1733912;81;21017;-77
2021/06/08 02:17:42;;;;;;;5.87;4.60;;;;;;;15.16;79.76;99790.74;1752489;80;20980;-77
2021/06/08 02:20:15;;;;;;;6.80;4.72;;;;;;;15.17;79.74;99786.25;1758946;79;20990;-77
2021/06/08 02:22:45;;;;;;;4.70;4.20;;;;;;;15.19;79.63;99790.91;1762624;80;21134;-77
2021/06/08 02:25:12;;;;;;;7.72;4.60;;;;;;;15.19;79.63;99790.91;1785423;79;21842;-77
2021/06/08 02:27:39;;;;;;;6.10;4.87;;;;;;;15.18;79.68;99788.74;1761905;78;21055;-78
2021/06/08 02:30:07;;;;;;;5.55;4.67;;;;;;;15.18;79.65;99790.07;1701612;80;21360;-77
2021/06/08 02:32:33;;;;;;;6.22;4.97;;;;;;;15.20;79.64;99790.40;1740858;79;21067;-78
2021/06/08 02:35:00;;;;;;;5.75;4.50;;;;;;;15.20;79.60;99781.92;1732576;80;21000;-78
2021/06/08 02:37:26;;;;;;;9.63;4.87;;;;;;;15.22;79.60;99794.55;1740404;79;21786;-77
2021/06/08 02:39:53;;;;;;;6.03;4.90;;;;;;;15.23;79.60;99790.89;1719851;82;21052;-77
2021/06/08 02:42:20;;;;;;;6.53;4.83;;;;;;;15.25;79.58;99789.39;1745918;81;21049;-77
2021/06/08 02:44:48;;;;;;;7.03;5.22;;;;;;;15.27;79.50;99792.73;1721627;79;21039;-78
2021/06/08 02:47:15;;;;;;;5.72;5.15;;;;;;;15.29;79.47;99789.41;1750549;79;20992;-77
2021/06/08 02:49:42;;;;;;;8.13;5.17;;;;;;;15.32;79.41;99787.73;1767538;80;21822;-75
2021/06/08 02:52:08;;;;;;;9.20;4.95;;;;;;;15.34;79.33;99791.88;1768258;79;20917;-76
2021/06/08 02:54:35;;;;;;;6.12;5.30;;;;;;;15.35;79.25;99794.08;1770062;80;21453;-75
2021/06/08 02:57:02;;;;;;;6.28;4.80;;;;;;;15.36;79.17;99791.74;1748533;78;21485;-75
2021/06/08 02:59:31;;;;;;;6.20;5.20;;;;;;;15.38;79.03;99789.74;1749171;80;20960;-75
2021/06/08 03:01:58;;;;;;;6.65;5.35;;;;;;;15.37;78.97;99789.41;1756085;79;21735;-76
2021/06/08 03:04:28;;;;;;;7.53;5.37;;;;;;;15.37;78.94;99793.41;1769113;79;21391;-76
2021/06/08 03:06:57;;;;;;;7.78;4.60;;;;;;;15.38;78.90;99789.74;1749315;80;21554;-76
2021/06/08 03:09:37;;;;;;;5.78;5.00;;;;;;;15.37;78.84;99786.75;1761584;80;20952;-76
2021/06/08 03:12:09;;;;;;;5.62;5.05;;;;;;;15.36;78.81;99792.57;1752688;79;21000;-77
2021/06/08 03:14:35;;;;;;;6.45;4.83;;;;;;;15.37;78.77;99793.41;1742447;80;21866;-76
2021/06/08 03:17:02;;;;;;;5.72;4.97;;;;;;;15.36;78.74;99790.41;1747543;79;21562;-76
2021/06/08 03:19:34;;;;;;;6.60;5.05;;;;;;;15.35;78.70;99798.06;1723299;81;21028;-76
2021/06/08 03:22:05;;;;;;;6.60;5.37;;;;;;;15.34;78.74;99794.55;1753954;80;21095;-76
2021/06/08 03:24:33;;;;;;;6.83;4.95;;;;;;;15.35;78.76;99797.56;1762566;79;21063;-76
2021/06/08 03:27:00;;;;;;;6.00;5.40;;;;;;;15.36;78.73;99796.56;1763052;80;21777;-76
2021/06/08 03:29:28;;;;;;;7.12;4.78;;;;;;;15.38;78.70;99802.55;1757402;79;20969;-76
2021/06/08 03:31:54;;;;;;;6.00;5.40;;;;;;;15.39;78.70;99802.05;1718976;79;21463;-76
2021/06/08 03:34:20;;;;;;;6.83;5.35;;;;;;;15.41;78.74;99804.86;1759452;80;20944;-76
2021/06/08 03:36:53;;;;;;;8.18;5.30;;;;;;;15.46;78.70;99795.89;1739071;80;20920;-77
2021/06/08 03:39:21;;;;;;;6.33;5.67;;;;;;;15.52;78.70;99797.54;1748195;80;21837;-76
2021/06/08 03:41:48;;;;;;;6.22;5.33;;;;;;;15.56;78.66;99797.05;1737794;80;21074;-76
2021/06/08 03:44:16;;;;;;;7.85;5.30;;;;;;;15.61;78.58;99799.23;1777814;80;21498;-76
2021/06/08 03:46:50;;;;;;;8.05;5.08;;;;;;;15.67;78.50;99804.72;1760575;79;21024;-77
2021/06/08 03:49:18;;;;;;;;;;;;;;;15.72;78.41;99799.70;1741311;82;20975;-76
2021/06/08 03:51:44;;;;;;;7.30;5.47;;;;;;;15.79;78.28;99804.36;1696821;82;21823;-77
2021/06/08 03:54:11;;;;;;;7.42;6.00;;;;;;;15.80;78.20;99808.69;1755314;80;21009;-76
2021/06/08 03:56:41;;;;;;;7.00;5.28;;;;;;;15.81;78.12;99813.01;1758638;79;21477;-76
2021/06/08 03:59:09;;;;;;;7.35;5.75;;;;;;;15.83;78.11;99812.36;1738192;81;21181;-76
2021/06/08 04:01:36;;;;;;;6.85;6.08;;;;;;;15.84;78.08;99803.37;1754286;79;21043;-76
2021/06/08 04:04:05;;;;;;;7.65;5.80;;;;;;;;;;1743871;78;21814;-76
2021/06/08 04:06:33;;;;;;;7.25;5.35;;;;;;;15.89;78.09;99806.34;1758029;79;21020;-76
2021/06/08 04:09:05;;;;;;;8.58;5.10;;;;;;;15.96;78.04;99805.50;1756988;79;20976;-76
2021/06/08 04:11:32;;;;;;;8.13;5.83;;;;;;;16.03;78.00;99806.98;1764092;79;21099;-76
2021/06/08 04:13:58;;;;;;;7.87;5.67;;;;;;;16.07;77.77;99810.13;1750563;79;20972;-76
2021/06/08 04:16:25;;;;;;;8.28;5.80;;;;;;;16.07;77.66;99812.80;1759121;79;21767;-77
2021/06/08 04:18:51;;;;;;;8.40;6.47;;;;;;;16.07;77.51;99812.80;1757619;79;21170;-75
2021/06/08 04:21:23;;;;;;;8.28;6.30;;;;;;;16.00;77.42;99813.47;1737047;81;21510;-75
2021/06/08 04:23:58;;;;;;;6.08;5.47;;;;;;;15.99;77.51;99810.98;1705471;81;21033;-76
2021/06/08 04:26:25;;;;;;;7.33;5.90;;;;;;;15.96;77.58;99815.32;1705358;82;21080;-84
2021/06/08 04:28:51;;;;;;;7.85;6.10;;;;;;;15.91;77.57;99808.33;1738108;80;21772;-71
2021/06/08 04:31:19;;;;;;;8.60;6.28;;;;;;;15.86;77.68;99811.52;1705187;81;20961;-71
2021/06/08 04:33:46;;;;;;;8.88;6.00;;;;;;;15.82;77.80;99810.17;1726441;80;21668;-72
2021/06/08 04:36:14;;;;;;;6.78;6.08;;;;;;;15.80;77.94;99813.52;1756225;79;21056;-70
2021/06/08 04:38:41;;;;;;;7.75;6.30;;;;;;;15.81;78.02;99816.50;1751159;80;21011;-73
2021/06/08 04:41:08;;;;;;;6.70;5.50;;;;;;;15.80;78.12;99820.67;1758117;80;22436;-81
2021/06/08 04:43:35;;;;;;;9.93;6.15;;;;;;;15.80;78.32;99822.00;1754746;79;21443;-81
2021/06/08 04:46:03;;;;;;;6.62;5.28;;;;;;;15.84;78.35;99822.84;1705630;82;20980;-80
2021/06/08 04:48:30;;;;;;;6.80;6.08;;;;;;;15.90;78.40;99820.81;1730528;82;21421;-78
2021/06/08 04:50:56;;;;;;;9.25;6.17;;;;;;;15.99;78.32;99826.45;1685830;82;21016;-79
2021/06/08 04:53:23;;;;;;;8.05;5.95;;;;;;;16.03;78.30;99819.80;1748523;80;21789;-78
2021/06/08 04:55:50;;;;;;;9.45;6.45;;;;;;;16.09;78.17;99816.11;1746716;80;21012;-79
2021/06/08 04:58:17;;;;;;;9.13;6.03;;;;;;;16.15;77.92;99813.61;1738084;82;21008;-78
2021/06/08 05:01:03;;;;;;;8.53;5.87;;;;;;;16.21;77.86;99814.73;1697206;83;21107;-79
2021/06/08 05:03:44;;;;;;;10.70;6.42;;;;;;;16.28;77.70;99808.55;1688996;82;21071;-79
2021/06/08 05:06:15;;;;;;;7.72;5.97;;;;;;;16.38;77.60;99804.86;1688994;82;21833;-79
2021/06/08 05:08:52;;;;;;;7.30;5.67;;;;;;;16.50;77.49;99809.66;1772002;79;21007;-78
2021/06/08 05:11:35;;;;;;;9.98;5.67;;;;;;;16.67;77.36;99811.72;1780577;79;21020;-78
2021/06/08 05:14:03;;;;;;;8.18;5.95;;;;;;;16.85;77.02;99808.81;1778095;79;21039;-77
2021/06/08 05:16:29;;;;;;;7.15;5.30;;;;;;;17.03;76.65;99812.55;1731852;80;20952;-77
2021/06/08 05:18:56;;;;;;;7.72;5.58;;;;;;;17.20;76.51;99806.59;1762933;80;21765;-77
2021/06/08 05:21:22;;;;;;;8.70;5.30;;;;;;;17.34;76.11;99813.30;1758175;80;21075;-78
2021/06/08 05:23:51;;;;;;;5.37;4.78;;;;;;;17.47;75.73;99810.05;1733372;79;21504;-77
2021/06/08 05:26:17;;;;;;;8.35;4.45;;;;;;;17.57;75.28;99806.62;1763435;78;21039;-77
2021/06/08 05:28:44;;;;;;;8.93;4.62;;;;;;;17.63;74.31;99805.05;1766436;80;20952;-77
2021/06/08 05:31:10;;;;;;;8.08;4.78;;;;;;;17.64;73.75;99812.05;1746595;82;21788;-76
2021/06/08 05:33:36;;;;;;;7.05;4.50;;;;;;;17.68;73.80;99816.87;1754595;79;20965;-75
2021/06/08 05:36:04;;;;;;;5.15;4.33;;;;;;;17.77;73.84;99815.48;1746856;80;21027;-75
2021/06/08 05:38:36;;;;;;;5.20;4.55;;;;;;;17.88;73.53;99823.05;1721479;81;20980;-76
2021/06/08 05:41:11;;;;;;;7.15;4.40;;;;;;;17.94;73.51;99819.63;1710150;81;21052;-77
2021/06/08 05:43:38;;;;;;;4.75;3.98;;;;;;;17.98;73.08;99819.10;1758912;79;21685;-76
2021/06/08 05:46:06;;;;;;;5.28;4.37;;;;;;;18.02;72.78;99821.72;1765542;80;20964;-77
2021/06/08 05:48:33;;;;;;;5.17;4.67;;;;;;;18.01;72.28;99817.90;1747243;79;21044;-76
2021/06/08 05:51:01;;;;;;;6.40;4.70;;;;;;;17.91;72.11;99818.67;1756125;79;21448;-77
2021/06/08 05:53:27;;;;;;;5.67;5.12;;;;;;;17.82;72.46;99810.41;1765967;79;20905;-76
2021/06/08 05:55:56;;;;;;;5.45;4.80;;;;;;;17.80;72.74;99807.10;1746931;79;22516;-77
2021/06/08 05:58:29;;;;;;;9.48;4.75;;;;;;;17.76;72.96;99807.12;1745177;80;21031;-76
2021/06/08 06:00:57;;;;;;;7.03;5.08;;;;;;;17.77;73.31;99810.14;1756203;80;21063;-77
2021/06/08 06:03:24;;;;;;;5.67;5.10;;;;;;;17.81;73.46;99800.23;1760910;80;20999;-77
2021/06/08 06:05:51;;;;;;;7.67;4.53;;;;;;;17.90;73.38;99800.98;1744957;79;20983;-76
2021/06/08 06:08:18;;;;;;;6.70;4.47;;;;;;;18.01;73.08;99806.70;1729187;82;21825;-78
2021/06/08 06:10:45;;;;;;;6.58;4.50;;;;;;;18.12;73.12;99799.23;1737827;79;21023;-76
2021/06/08 06:13:25;;;;;;;6.95;4.72;;;;;;;18.28;73.06;99803.89;1718504;79;21029;-79
2021/06/08 06:15:53;;;;;;;7.47;4.67;;;;;;;18.41;72.65;99801.06;1760318;79;21063;-80
2021/06/08 06:18:20;;;;;;;6.55;4.58;;;;;;;18.53;72.25;99799.08;1763919;80;21519;-78
2021/06/08 06:20:51;;;;;;;7.87;4.45;;;;;;;18.63;71.83;99806.81;1749817;79;21573;-79
2021/06/08 06:23:19;;;;;;;4.10;3.70;;;;;;;18.68;71.39;99799.06;1669998;80;21056;-78
2021/06/08 06:25:45;;;;;;;4.62;3.87;;;;;;;18.75;70.48;99799.98;1713980;83;21082;-78
2021/06/08 06:28:15;;;;;;;5.05;3.80;;;;;;;18.81;70.07;99799.20;1692037;81;21028;-77
2021/06/08 06:30:42;;;;;;;5.95;3.83;;;;;;;18.87;69.50;99801.65;1760508;78;21505;-77
2021/06/08 06:33:09;;;;;;;6.58;4.20;;;;;;;18.92;68.97;99794.41;1757249;79;21840;-78
2021/06/08 06:35:35;;;;;;;4.87;4.03;;;;;;;18.94;68.46;99795.87;1757661;80;21024;-74
2021/06/08 06:38:03;;;;;;;3.60;3.30;;;;;;;18.96;68.28;99793.82;1716855;81;21044;-74
2021/06/08 06:40:30;;;;;;;6.80;3.35;;;;;;;19.00;68.11;99792.92;1762656;80;21094;-72
2021/06/08 06:43:01;;;;;;;6.80;3.52;;;;;;;19.07;67.98;99791.15;1722695;80;21086;-75
2021/06/08 06:45:27;;;;;;;6.08;3.85;;;;;;;19.20;67.96;99795.28;1750690;78;21888;-75
2021/06/08 06:48:02;;;;;;;3.50;3.20;;;;;;;19.35;67.86;99792.55;1719185;80;21491;-81
2021/06/08 06:50:25;;;;;;;6.20;3.52;;;;;;;19.47;66.73;99797.69;1727062;82;20968;-77
2021/06/08 06:52:55;;;;;;;6.20;3.95;;;;;;;19.51;66.62;99796.30;1750838;80;21472;-77
2021/06/08 06:55:20;;;;;;;8.23;3.70;;;;;;;19.57;66.59;99794.20;1759610;78;21526;-76
2021/06/08 06:57:46;;;;;;;5.30;3.35;;;;;;;19.67;66.48;99799.22;1765664;78;21813;-76
2021/06/08 07:00:15;;;;;;;7.65;3.95;;;;;;;19.71;66.48;99799.98;1748698;79;21008;-79
2021/06/08 07:02:42;;;;;;;5.78;3.83;;;;;;;19.75;66.36;99791.55;1764476;80;21635;-77
2021/06/08 07:05:16;;;;;;;5.72;3.30;;;;;;;19.78;66.13;99796.00;1767630;79;21027;-78
2021/06/08 07:07:43;;;;;;;6.20;3.70;;;;;;;19.85;66.08;99800.90;1749274;80;21014;-79
2021/06/08 07:10:10;;;;;;;4.15;3.50;;;;;;;19.92;66.23;99799.09;1728850;80;21830;-80
2021/06/08 07:12:40;;;;;;;4.17;3.77;;;;;;;20.03;65.73;99798.23;1741977;80;20964;-83
2021/06/08 07:15:09;;;;;;;9.65;3.50;;;;;;;20.07;65.24;99794.13;1745796;80;20999;-79
2021/06/08 07:17:37;;;;;;;4.08;3.00;;;;;;;20.12;65.01;99797.88;1751752;80;21395;-80
2021/06/08 07:20:05;;;;;;;4.17;3.50;;;;;;;20.17;63.64;99804.83;1748895;80;21165;-79
2021/06/08 07:22:33;;;;;;;4.05;3.62;;;;;;;20.10;63.86;99803.95;1745824;80;22511;-78
2021/06/08 07:25:02;;;;;;;4.72;3.42;;;;;;;20.07;64.64;99808.35;1740799;79;21086;-78
2021/06/08 07:27:28;;;;;;;4.08;3.67;;;;;;;20.09;64.30;99804.16;1758944;79;21106;-80
2021/06/08 07:29:55;;;;;;;5.85;3.70;;;;;;;20.11;64.30;99801.59;1753491;80;21593;-79
2021/06/08 07:32:27;;;;;;;5.83;3.47;;;;;;;20.11;64.50;99806.12;1736128;79;21407;-78
2021/06/08 07:35:17;;;;;;;4.62;3.58;;;;;;;20.12;64.04;99803.24;1748523;79;22483;-79
2021/06/08 07:37:46;;;;;;;6.40;3.85;;;;;;;20.11;64.22;99805.61;1748746;80;20993;-80
2021/06/08 07:40:24;;;;;;;9.25;3.58;;;;;;;20.17;64.65;99798.61;1711907;82;20989;-85
2021/06/08 07:42:56;;;;;;;4.97;3.10;;;;;;;20.27;64.88;99798.59;1726861;82;20996;-84
2021/06/08 07:45:27;;;;;;;9.03;3.65;;;;;;;20.39;64.24;99796.17;1729858;82;21537;-80
2021/06/08 07:47:54;;;;;;;4.47;3.58;;;;;;;20.51;64.48;99797.80;1734047;82;21831;-78
2021/06/08 07:50:21;;;;;;;5.25;3.50;;;;;;;20.65;63.98;99801.34;1701040;81;21004;-78
2021/06/08 07:52:52;;;;;;;4.33;3.58;;;;;;;20.77;63.82;99803.78;1772517;80;20976;-78
2021/06/08 07:55:19;;;;;;;3.98;3.65;;;;;;;20.86;63.67;99793.17;1763044;80;21383;-80
2021/06/08 07:57:49;;;;;;;3.45;3.15;;;;;;;20.95;62.93;99797.33;1756938;79;20971;-78
2021/06/08 08:00:16;;;;;;;5.83;3.65;;;;;;;20.93;63.13;99792.66;1778593;78;21803;-76
2021/06/08 08:02:44;;;;;;;4.62;3.20;;;;;;;20.96;63.66;99790.92;1745916;79;21055;-75
2021/06/08 08:05:14;;;;;;;3.75;3.00;;;;;;;21.09;62.92;99794.97;1719607;80;21071;-75
2021/06/08 08:07:40;;;;;;;5.70;3.35;;;;;;;21.15;61.54;99788.79;1728062;82;21074;-80
2021/06/08 08:10:07;;;;;;;7.33;3.27;;;;;;;21.23;61.21;99790.95;1758000;80;21185;-80
2021/06/08 08:12:39;;;;;;;4.55;2.90;;;;;;;21.30;61.54;99787.79;1731792;80;21817;-80
2021/06/08 08:15:06;;;;;;;3.12;2.47;;;;;;;21.41;61.68;99784.48;1716869;80;21574;-80
2021/06/08 08:17:33;;;;;;;3.35;2.58;;;;;;;21.62;59.64;99791.53;1765247;78;21522;-79
2021/06/08 08:20:00;;;;;;;4.05;2.83;;;;;;;21.73;58.68;99781.49;1769257;78;21470;-75
2021/06/08 08:22:26;;;;;;;4.08;2.50;;;;;;;21.80;58.47;99778.78;1748982;80;21056;-85
2021/06/08 08:24:53;;;;;;;3.12;2.40;;;;;;;21.78;58.21;99777.64;1744057;79;21843;-76
2021/06/08 08:27:19;;;;;;;4.47;2.52;;;;;;;21.88;57.26;99782.59;1768618;80;20976;-77
2021/06/08 08:29:45;;;;;;;3.33;2.33;;;;;;;21.78;57.62;99786.23;1753534;80;21027;-81
2021/06/08 08:32:13;;;;;;;1.80;1.70;;;;;;;21.78;56.17;99772.27;1749729;80;21003;-79
2021/06/08 08:34:42;;;;;;;2.62;2.17;;;;;;;21.85;54.33;99781.68;1758774;79;20945;-79
2021/06/08 08:37:09;;;;;;;2.25;2.00;;;;;;;21.91;54.97;99783.02;1741234;79;21472;-79
2021/06/08 08:39:35;;;;;;;3.15;2.30;;;;;;;21.99;54.91;99779.25;1716205;81;21506;-79
2021/06/08 08:42:02;;;;;;;4.40;2.60;;;;;;;21.95;54.87;99769.97;1767045;80;20979;-81
2021/06/08 08:44:28;;;;;;;3.72;2.27;;;;;;;21.86;55.85;99768.54;1734729;79;21360;-76
2021/06/08 08:46:55;;;;;;;2.95;1.80;;;;;;;21.95;56.11;99760.04;1773586;79;21066;-77
2021/06/08 08:49:21;;;;;;;2.55;2.30;;;;;;;22.22;55.36;99759.48;1756817;79;21800;-79
2021/06/08 08:51:49;;;;;;;2.77;2.20;;;;;;;22.38;54.65;99764.06;1731287;81;20964;-80
2021/06/08 08:54:19;;;;;;;2.25;2.05;;;;;;;22.39;53.83;99754.45;1695558;82;20976;-82
2021/06/08 08:56:46;;;;;;;3.85;2.30;;;;;;;22.35;53.84;99757.77;1763921;79;21466;-81
2021/06/08 08:59:15;;;;;;;2.45;2.25;;;;;;;22.31;54.09;99764.11;1765760;79;21074;-81
2021/06/08 09:01:45;;;;;;;3.42;2.40;;;;;;;22.43;54.66;99769.12;1763164;80;21824;-81
2021/06/08 09:04:12;;;;;;;4.33;2.27;;;;;;;22.61;54.54;99766.25;1764716;79;20945;-81
2021/06/08 09:06:38;;;;;;;2.95;2.30;;;;;;;22.72;53.63;99762.88;1757292;80;21093;-81
2021/06/08 09:09:07;;;;;;;2.70;2.30;;;;;;;22.81;54.20;99756.20;1757551;79;21075;-81
2021/06/08 09:11:42;;;;;;;3.58;2.15;;;;;;;22.97;53.33;99760.25;1763906;80;21007;-81
2021/06/08 09:14:05;;;;;;;6.45;2.50;;;;;;;23.03;53.54;99767.48;1768441;79;21832;-82
2021/06/08 09:16:32;;;;;;;3.98;2.05;;;;;;;23.15;52.02;99765.73;1763813;80;20964;-83
2021/06/08 09:19:09;;;;;;;3.85;1.87;;;;;;;23.28;52.65;99768.34;1756145;80;20961;-79
2021/06/08 09:21:38;;;;;;;3.37;2.25;;;;;;;23.50;50.84;99774.17;1761259;79;21071;-78
2021/06/08 09:24:26;;;;;;;2.37;1.87;;;;;;;23.41;50.15;99766.88;1762327;79;21533;-79
2021/06/08 09:26:58;;;;;;;2.00;1.80;;;;;;;23.17;49.61;99768.23;1765574;80;21855;-83
2021/06/08 09:29:41;;;;;;;3.25;1.82;;;;;;;22.95;51.05;99761.83;1745931;80;21007;-77
2021/06/08 09:32:25;;;;;;;2.22;1.80;;;;;;;22.94;50.74;99762.87;1727996;80;21019;-84
2021/06/08 09:34:57;;;;;;;3.60;1.75;;;;;;;22.89;50.28;99757.84;1735114;80;21197;-82
2021/06/08 09:37:42;;;;;;;2.45;1.60;;;;;;;22.89;51.10;99751.11;1764966;79;20995;-82
2021/06/08 09:40:25;;;;;;;4.80;1.90;;;;;;;23.04;51.72;99755.66;1772833;79;22235;-81
2021/06/08 09:43:08;;;;;;;1.92;1.72;;;;;;;23.20;49.68;99763.74;1765508;79;20904;-81
2021/06/08 09:45:46;;;;;;;2.20;1.87;;;;;;;23.25;49.88;99750.42;1761061;79;20925;-80
2021/06/08 09:48:14;;;;;;;2.55;1.92;;;;;;;23.47;50.03;99754.92;1759083;79;21059;-82
2021/06/08 09:50:43;;;;;;;2.50;1.85;;;;;;;23.77;50.11;99747.82;1724260;80;21070;-80
2021/06/08 09:53:28;;;;;;;2.35;1.90;;;;;;;24.02;48.78;99747.75;1768795;79;22451;-80
2021/06/08 09:56:10;;;;;;;2.50;1.65;;;;;;;24.17;49.48;99735.24;1768034;79;21026;-80
2021/06/08 09:58:40;;;;;;;3.00;2.05;;;;;;;24.31;48.31;99738.09;1757443;80;21047;-81
2021/06/08 10:01:22;;;;;;;1.92;1.60;;;;;;;24.30;47.86;99736.42;1738924;81;21017;-82
2021/06/08 10:03:55;;;;;;;4.47;1.87;;;;;;;24.31;48.09;99729.15;1754413;79;21044;-82
2021/06/08 10:06:24;;;;;;;2.10;1.90;;;;;;;24.46;48.52;99720.17;1754438;80;21834;-83
2021/06/08 10:09:00;;;;;;;1.77;1.65;;;;;;;24.57;46.29;99722.62;1768392;79;21320;-83
2021/06/08 10:11:32;;;;;;;3.92;1.80;;;;;;;24.29;46.08;99721.28;1733104;79;21060;-82
2021/06/08 10:14:19;;;;;;;2.20;1.67;;;;;;;24.15;46.41;99717.11;1755873;80;21440;-84
2021/06/08 10:17:00;;;;;;;3.77;1.72;;;;;;;24.02;47.09;99728.86;1749384;80;21484;-82
2021/06/08 10:19:27;;;;;;;2.10;1.90;;;;;;;23.89;47.42;99729.84;1743963;79;21837;-81
2021/06/08 10:21:54;;;;;;;2.40;1.92;;;;;;;23.66;48.48;99729.16;1737666;79;21144;-81
2021/06/08 10:24:24;;;;;;;2.00;1.85;;;;;;;23.22;49.81;99736.88;1753721;80;21086;-81
2021/06/08 10:26:54;;;;;;;2.45;2.02;;;;;;;22.80;51.50;99733.84;1762885;79;21506;-81
2021/06/08 10:29:27;;;;;;;2.50;1.75;;;;;;;22.59;52.54;99742.25;1741996;79;20965;-83
2021/06/08 10:31:55;;;;;;;2.10;1.90;;;;;;;22.32;53.01;99744.23;1750321;79;22471;-79
2021/06/08 10:34:22;;;;;;;2.80;1.90;;;;;;;22.16;53.81;99746.87;1731265;79;21490;-76
2021/06/08 10:36:49;;;;;;;2.92;2.20;;;;;;;21.97;54.13;99741.83;1739246;80;21064;-80
2021/06/08 10:39:17;;;;;;;2.30;2.02;;;;;;;21.78;55.26;99749.42;1723536;80;21105;-76
2021/06/08 10:41:45;;;;;;;3.00;2.00;;;;;;;21.52;56.59;99761.05;1763708;80;21606;-78
2021/06/08 10:44:27;;;;;;;3.52;1.92;;;;;;;21.09;57.70;99749.83;1751326;79;22679;-77
2021/06/08 10:47:02;;;;;;;5.33;2.15;;;;;;;20.67;58.10;99756.38;1766081;80;21095;-75
2021/06/08 10:49:37;;;;;;;4.70;2.33;;;;;;;20.15;61.31;99786.75;1748819;79;20980;-77
2021/06/08 10:52:06;;;;;;;5.55;2.15;;;;;;;19.69;63.42;99789.16;1736272;80;21078;-76
2021/06/08 10:54:45;;;;;;;5.55;2.80;;;;;;;19.36;64.96;99780.30;1731165;80;21073;-76
2021/06/08 10:57:13;;;;;;;5.15;2.55;;;;;;;19.06;66.46;99774.27;1742359;80;22428;-76
2021/06/08 10:59:43;;;;;;;5.42;2.83;;;;;;;18.87;67.77;99770.37;1744890;80;20960;-76
2021/06/08 11:02:10;;;;;;;7.35;4.25;;;;;;;18.83;68.86;99762.92;1770717;79;21209;-76
2021/06/08 11:04:55;;;;;;;10.45;3.50;;;;;;;18.84;69.96;99758.72;1774908;78;21058;-77
2021/06/08 11:07:52;;;;;;;6.58;3.20;;;;;;;18.82;70.91;99753.24;1779375;80;20928;-76
2021/06/08 11:10:30;;;;;;;6.85;3.08;;;;;;;18.88;71.77;99749.78;1749461;80;21795;-76
2021/06/08 11:13:17;;;;;;;7.28;3.20;;;;;;;18.93;72.47;99735.84;1761770;80;20968;-76
2021/06/08 11:15:48;;;;;;;5.33;2.72;;;;;;;19.02;72.94;99727.50;1773998;80;21470;-77
2021/06/08 11:18:25;;;;;;;6.80;3.00;;;;;;;19.24;73.29;99723.45;1736866;80;21000;-75
2021/06/08 11:21:06;;;;;;;7.37;3.55;;;;;;;19.44;73.45;99717.23;1731802;81;21028;-78
2021/06/08 11:23:37;;;;;;;4.17;2.80;;;;;;;19.75;73.79;99718.69;1712592;81;21869;-77
2021/06/08 11:26:03;;;;;;;4.90;3.10;;;;;;;20.04;72.91;99707.41;1732537;81;21127;-75
2021/06/08 11:28:45;;;;;;;4.87;2.62;;;;;;;20.27;72.53;99709.27;1705136;81;21118;-79
2021/06/08 11:31:19;;;;;;;3.85;2.98;;;;;;;20.54;71.97;99698.94;1714490;81;21566;-78
2021/06/08 11:33:47;;;;;;;;;;;;;;;20.73;70.36;99699.19;1755635;79;21545;-79
2021/06/08 11:36:24;;;;;;;3.75;2.40;;;;;;;20.88;70.09;99699.84;1755126;79;20406;-78
2021/06/08 11:38:54;;;;;;;5.25;2.20;;;;;;;20.89;69.13;99700.66;1751484;80;20925;-76
2021/06/08 11:41:21;;;;;;;3.40;2.08;;;;;;;20.80;67.19;99696.00;1786603;79;21182;-76
2021/06/08 11:43:55;;;;;;;2.47;1.60;;;;;;;20.65;64.23;99689.98;1762301;78;21074;-75
2021/06/08 11:46:32;;;;;;;4.37;1.70;;;;;;;20.50;65.00;99689.66;1736979;80;21032;-76